sensor_id;sensor_type;location;lat;lon;timestamp;pressure;altitude;pressure_sealevel;temperature;humidity
76434;BME280;65265;53.200;6.080;2023-04-21T00:03:29;101859.25;;;7.89;100.00
76434;BME280;65265;53.200;6.080;2023-04-21T00:08:24;101863.25;;;7.85;100.00
76434;BME280;65265;53.200;6.080;2023-04-21T00:13:16;101849.34;;;7.80;100.00
76434;BME280;65265;53.200;6.080;2023-04-21T00:18:08;101856.09;;;7.80;100.00
76434;BME280;65265;53.200;6.080;2023-04-21T00:23:00;101837.28;;;7.78;100.00
76434;BME280;65265;53.200;6.080;2023-04-21T00:27:54;101836.63;;;7.80;100.00
76434;BME280;65265;53.200;6.080;2023-04-21T00:32:46;101826.50;;;7.82;100.00
76434;BME280;65265;53.200;6.080;2023-04-21T00:37:37;101818.66;;;7.79;100.00
76434;BME280;65265;53.200;6.080;2023-04-21T00:42:29;101808.28;;;7.76;100.00
76434;BME280;65265;53.200;6.080;2023-04-21T00:47:22;101792.72;;;7.71;100.00
76434;BME280;65265;53.200;6.080;2023-04-21T00:52:16;101792.41;;;7.67;100.00
76434;BME280;65265;53.200;6.080;2023-04-21T00:57:09;101780.03;;;7.60;100.00
76434;BME280;65265;53.200;6.080;2023-04-21T01:02:01;101773.19;;;7.59;100.00
76434;BME280;65265;53.200;6.080;2023-04-21T01:06:54;101763.41;;;7.52;100.00
76434;BME280;65265;53.200;6.080;2023-04-21T01:11:59;101768.97;;;7.46;100.00
76434;BME280;65265;53.200;6.080;2023-04-21T01:16:52;101760.38;;;7.44;100.00
76434;BME280;65265;53.200;6.080;2023-04-21T01:21:46;101761.81;;;7.41;100.00
76434;BME280;65265;53.200;6.080;2023-04-21T01:26:38;101749.88;;;7.40;100.00
76434;BME280;65265;53.200;6.080;2023-04-21T01:31:29;101752.13;;;7.35;100.00
76434;BME280;65265;53.200;6.080;2023-04-21T01:36:21;101750.13;;;7.31;100.00
76434;BME280;65265;53.200;6.080;2023-04-21T01:41:13;101742.41;;;7.30;100.00
76434;BME280;65265;53.200;6.080;2023-04-21T01:46:05;101743.75;;;7.25;100.00
76434;BME280;65265;53.200;6.080;2023-04-21T01:50:58;101729.19;;;7.22;100.00
76434;BME280;65265;53.200;6.080;2023-04-21T01:55:49;101724.09;;;7.22;100.00
76434;BME280;65265;53.200;6.080;2023-04-21T02:00:42;101730.97;;;7.23;100.00
76434;BME280;65265;53.200;6.080;2023-04-21T02:05:33;101739.84;;;7.17;100.00
76434;BME280;65265;53.200;6.080;2023-04-21T02:10:25;101725.44;;;7.17;100.00
76434;BME280;65265;53.200;6.080;2023-04-21T02:15:16;101732.09;;;7.15;100.00
76434;BME280;65265;53.200;6.080;2023-04-21T02:20:10;101726.34;;;7.18;100.00
76434;BME280;65265;53.200;6.080;2023-04-21T02:25:02;101722.22;;;7.20;100.00
76434;BME280;65265;53.200;6.080;2023-04-21T02:29:54;101715.75;;;7.12;100.00
76434;BME280;65265;53.200;6.080;2023-04-21T02:34:45;101717.31;;;7.10;100.00
76434;BME280;65265;53.200;6.080;2023-04-21T02:39:39;101721.31;;;7.06;100.00
76434;BME280;65265;53.200;6.080;2023-04-21T02:44:30;101721.00;;;7.02;100.00
76434;BME280;65265;53.200;6.080;2023-04-21T02:49:22;101724.97;;;6.98;100.00
76434;BME280;65265;53.200;6.080;2023-04-21T02:54:13;101713.84;;;6.97;100.00
76434;BME280;65265;53.200;6.080;2023-04-21T02:59:06;101714.03;;;6.99;100.00
76434;BME280;65265;53.200;6.080;2023-04-21T03:03:58;101714.50;;;6.94;100.00
76434;BME280;65265;53.200;6.080;2023-04-21T03:08:49;101704.13;;;6.91;100.00
76434;BME280;65265;53.200;6.080;2023-04-21T03:13:41;101720.28;;;6.92;100.00
76434;BME280;65265;53.200;6.080;2023-04-21T03:18:34;101718.59;;;6.92;100.00
76434;BME280;65265;53.200;6.080;2023-04-21T03:23:26;101714.09;;;6.88;100.00
76434;BME280;65265;53.200;6.080;2023-04-21T03:28:17;101704.78;;;6.89;100.00
76434;BME280;65265;53.200;6.080;2023-04-21T03:33:09;101704.31;;;6.94;100.00
76434;BME280;65265;53.200;6.080;2023-04-21T03:38:02;101697.44;;;7.04;100.00
76434;BME280;65265;53.200;6.080;2023-04-21T03:42:53;101695.25;;;6.97;100.00
76434;BME280;65265;53.200;6.080;2023-04-21T03:47:44;101689.50;;;7.00;100.00
76434;BME280;65265;53.200;6.080;2023-04-21T03:52:36;101692.16;;;7.02;100.00
76434;BME280;65265;53.200;6.080;2023-04-21T03:57:29;101685.97;;;6.98;100.00
76434;BME280;65265;53.200;6.080;2023-04-21T04:02:20;101685.31;;;7.01;100.00
76434;BME280;65265;53.200;6.080;2023-04-21T04:07:12;101694.00;;;7.04;99.99
76434;BME280;65265;53.200;6.080;2023-04-21T04:12:04;101687.38;;;7.06;99.64
76434;BME280;65265;53.200;6.080;2023-04-21T04:16:57;101680.13;;;7.12;99.51
76434;BME280;65265;53.200;6.080;2023-04-21T04:21:48;101683.28;;;7.08;99.29
76434;BME280;65265;53.200;6.080;2023-04-21T04:26:40;101687.97;;;7.15;99.20
76434;BME280;65265;53.200;6.080;2023-04-21T04:31:31;101684.84;;;7.06;99.50
76434;BME280;65265;53.200;6.080;2023-04-21T04:36:25;101685.88;;;7.09;99.63
76434;BME280;65265;53.200;6.080;2023-04-21T04:41:17;101688.66;;;7.12;99.71
76434;BME280;65265;53.200;6.080;2023-04-21T04:46:10;101686.78;;;7.10;100.00
76434;BME280;65265;53.200;6.080;2023-04-21T04:51:02;101701.22;;;7.22;99.21
76434;BME280;65265;53.200;6.080;2023-04-21T04:55:54;101705.28;;;7.20;98.90
76434;BME280;65265;53.200;6.080;2023-04-21T05:00:47;101717.16;;;7.20;99.10
76434;BME280;65265;53.200;6.080;2023-04-21T05:05:39;101716.88;;;7.28;98.58
76434;BME280;65265;53.200;6.080;2023-04-21T05:10:30;101720.31;;;7.29;98.79
76434;BME280;65265;53.200;6.080;2023-04-21T05:15:23;101717.59;;;7.39;98.94
76434;BME280;65265;53.200;6.080;2023-04-21T05:20:15;101734.03;;;7.44;98.76
76434;BME280;65265;53.200;6.080;2023-04-21T05:25:09;101729.72;;;7.43;98.74
76434;BME280;65265;53.200;6.080;2023-04-21T05:30:02;101739.06;;;7.55;98.29
76434;BME280;65265;53.200;6.080;2023-04-21T05:34:55;101728.28;;;7.59;97.78
76434;BME280;65265;53.200;6.080;2023-04-21T05:39:46;101733.56;;;7.75;97.79
76434;BME280;65265;53.200;6.080;2023-04-21T05:44:38;101726.03;;;7.90;96.90
76434;BME280;65265;53.200;6.080;2023-04-21T05:49:30;101736.22;;;8.03;96.21
76434;BME280;65265;53.200;6.080;2023-04-21T05:54:23;101732.31;;;8.21;95.49
76434;BME280;65265;53.200;6.080;2023-04-21T05:59:14;101736.31;;;8.30;95.24
76434;BME280;65265;53.200;6.080;2023-04-21T06:04:05;101728.38;;;8.39;94.40
76434;BME280;65265;53.200;6.080;2023-04-21T06:08:57;101723.66;;;8.45;93.41
76434;BME280;65265;53.200;6.080;2023-04-21T06:13:50;101729.69;;;8.60;93.04
76434;BME280;65265;53.200;6.080;2023-04-21T06:18:42;101729.66;;;8.73;91.63
76434;BME280;65265;53.200;6.080;2023-04-21T06:23:34;101726.84;;;8.83;90.83
76434;BME280;65265;53.200;6.080;2023-04-21T06:28:25;101718.16;;;8.94;90.74
76434;BME280;65265;53.200;6.080;2023-04-21T06:33:18;101713.81;;;9.06;90.21
76434;BME280;65265;53.200;6.080;2023-04-21T06:38:10;101717.16;;;9.19;89.78
76434;BME280;65265;53.200;6.080;2023-04-21T06:43:01;101708.28;;;9.13;89.50
76434;BME280;65265;53.200;6.080;2023-04-21T06:47:52;101714.03;;;9.23;90.28
76434;BME280;65265;53.200;6.080;2023-04-21T06:52:45;101717.97;;;9.33;90.73
76434;BME280;65265;53.200;6.080;2023-04-21T06:57:37;101714.72;;;9.49;89.70
76434;BME280;65265;53.200;6.080;2023-04-21T07:02:28;101704.94;;;9.71;88.52
76434;BME280;65265;53.200;6.080;2023-04-21T07:07:20;101704.84;;;9.84;88.11
76434;BME280;65265;53.200;6.080;2023-04-21T07:12:13;101701.81;;;9.91;87.95
76434;BME280;65265;53.200;6.080;2023-04-21T07:17:04;101699.28;;;10.06;88.35
76434;BME280;65265;53.200;6.080;2023-04-21T07:21:56;101692.53;;;10.22;87.76
76434;BME280;65265;53.200;6.080;2023-04-21T07:26:48;101689.81;;;10.35;87.64
76434;BME280;65265;53.200;6.080;2023-04-21T07:31:41;101691.53;;;10.51;87.62
76434;BME280;65265;53.200;6.080;2023-04-21T07:36:32;101684.50;;;10.79;83.95
76434;BME280;65265;53.200;6.080;2023-04-21T07:41:24;101688.50;;;10.90;84.63
76434;BME280;65265;53.200;6.080;2023-04-21T07:46:16;101683.44;;;11.07;84.75
76434;BME280;65265;53.200;6.080;2023-04-21T07:51:09;101684.34;;;11.25;84.45
76434;BME280;65265;53.200;6.080;2023-04-21T07:56:00;101691.63;;;11.34;83.25
76434;BME280;65265;53.200;6.080;2023-04-21T08:00:52;101691.00;;;11.55;83.48
76434;BME280;65265;53.200;6.080;2023-04-21T08:05:43;101675.88;;;11.77;83.00
76434;BME280;65265;53.200;6.080;2023-04-21T08:10:36;101674.97;;;11.94;82.04
76434;BME280;65265;53.200;6.080;2023-04-21T08:15:28;101671.69;;;12.14;79.48
76434;BME280;65265;53.200;6.080;2023-04-21T08:20:19;101658.22;;;12.37;80.01
76434;BME280;65265;53.200;6.080;2023-04-21T08:25:12;101668.63;;;12.40;77.76
76434;BME280;65265;53.200;6.080;2023-04-21T08:30:06;101661.75;;;12.58;78.19
76434;BME280;65265;53.200;6.080;2023-04-21T08:34:57;101656.41;;;12.72;76.76
76434;BME280;65265;53.200;6.080;2023-04-21T08:39:49;101659.22;;;12.96;76.13
76434;BME280;65265;53.200;6.080;2023-04-21T08:44:42;101651.66;;;13.19;75.95
76434;BME280;65265;53.200;6.080;2023-04-21T08:49:37;101651.47;;;13.35;74.94
76434;BME280;65265;53.200;6.080;2023-04-21T08:54:28;101650.31;;;13.70;74.68
76434;BME280;65265;53.200;6.080;2023-04-21T08:59:20;101641.47;;;13.84;73.37
76434;BME280;65265;53.200;6.080;2023-04-21T09:04:15;101639.84;;;14.08;72.77
76434;BME280;65265;53.200;6.080;2023-04-21T09:09:08;101644.72;;;14.44;72.79
76434;BME280;65265;53.200;6.080;2023-04-21T09:14:00;101638.03;;;14.72;72.75
76434;BME280;65265;53.200;6.080;2023-04-21T09:18:51;101641.38;;;15.18;70.50
76434;BME280;65265;53.200;6.080;2023-04-21T09:23:45;101634.66;;;15.23;69.39
76434;BME280;65265;53.200;6.080;2023-04-21T09:28:41;101635.78;;;15.30;67.41
76434;BME280;65265;53.200;6.080;2023-04-21T09:33:33;101630.31;;;15.46;67.85
76434;BME280;65265;53.200;6.080;2023-04-21T09:38:25;101618.88;;;15.64;68.43
76434;BME280;65265;53.200;6.080;2023-04-21T09:43:16;101620.59;;;15.92;67.00
76434;BME280;65265;53.200;6.080;2023-04-21T09:48:11;101625.53;;;16.12;66.21
76434;BME280;65265;53.200;6.080;2023-04-21T09:53:06;101615.75;;;16.30;66.19
76434;BME280;65265;53.200;6.080;2023-04-21T09:58:01;101607.38;;;16.68;65.96
76434;BME280;65265;53.200;6.080;2023-04-21T10:02:57;101603.78;;;17.26;64.03
76434;BME280;65265;53.200;6.080;2023-04-21T10:07:51;101595.53;;;17.07;61.43
76434;BME280;65265;53.200;6.080;2023-04-21T10:12:43;101589.56;;;16.77;64.40
76434;BME280;65265;53.200;6.080;2023-04-21T10:17:35;101590.44;;;16.47;63.15
76434;BME280;65265;53.200;6.080;2023-04-21T10:22:28;101584.78;;;16.60;64.60
76434;BME280;65265;53.200;6.080;2023-04-21T10:27:32;101568.25;;;16.86;60.50
76434;BME280;65265;53.200;6.080;2023-04-21T10:32:31;101568.34;;;17.22;62.13
76434;BME280;65265;53.200;6.080;2023-04-21T10:37:30;101559.34;;;17.07;61.94
76434;BME280;65265;53.200;6.080;2023-04-21T10:42:24;101540.16;;;17.33;59.06
76434;BME280;65265;53.200;6.080;2023-04-21T10:47:24;101537.84;;;17.80;59.34
76434;BME280;65265;53.200;6.080;2023-04-21T10:52:18;101536.19;;;18.27;57.92
76434;BME280;65265;53.200;6.080;2023-04-21T10:57:11;101520.44;;;18.58;57.34
76434;BME280;65265;53.200;6.080;2023-04-21T11:02:04;101512.75;;;18.61;55.66
76434;BME280;65265;53.200;6.080;2023-04-21T11:07:05;101510.91;;;18.57;56.72
76434;BME280;65265;53.200;6.080;2023-04-21T11:11:57;101504.88;;;19.07;54.74
76434;BME280;65265;53.200;6.080;2023-04-21T11:16:49;101502.38;;;19.13;55.43
76434;BME280;65265;53.200;6.080;2023-04-21T11:21:40;101492.59;;;19.50;53.96
76434;BME280;65265;53.200;6.080;2023-04-21T11:26:34;101487.75;;;19.16;53.36
76434;BME280;65265;53.200;6.080;2023-04-21T11:31:27;101474.66;;;18.57;54.07
76434;BME280;65265;53.200;6.080;2023-04-21T11:36:20;101460.97;;;18.64;53.68
76434;BME280;65265;53.200;6.080;2023-04-21T11:41:19;101460.19;;;18.23;54.94
76434;BME280;65265;53.200;6.080;2023-04-21T11:46:21;101464.41;;;18.63;52.83
76434;BME280;65265;53.200;6.080;2023-04-21T11:51:16;101448.69;;;19.07;54.16
76434;BME280;65265;53.200;6.080;2023-04-21T11:56:08;101438.19;;;19.57;52.39
76434;BME280;65265;53.200;6.080;2023-04-21T12:01:06;101434.16;;;19.17;51.12
76434;BME280;65265;53.200;6.080;2023-04-21T12:05:59;101434.44;;;18.80;53.37
76434;BME280;65265;53.200;6.080;2023-04-21T12:10:51;101425.72;;;18.75;52.80
76434;BME280;65265;53.200;6.080;2023-04-21T12:15:43;101424.84;;;18.73;52.36
76434;BME280;65265;53.200;6.080;2023-04-21T12:20:35;101414.91;;;18.46;53.49
76434;BME280;65265;53.200;6.080;2023-04-21T12:25:28;101407.63;;;18.78;52.51
76434;BME280;65265;53.200;6.080;2023-04-21T12:30:20;101416.06;;;18.65;51.37
76434;BME280;65265;53.200;6.080;2023-04-21T12:35:11;101396.16;;;18.62;52.83
76434;BME280;65265;53.200;6.080;2023-04-21T12:40:04;101395.22;;;19.15;50.82
76434;BME280;65265;53.200;6.080;2023-04-21T12:44:57;101386.03;;;19.37;47.38
76434;BME280;65265;53.200;6.080;2023-04-21T12:49:48;101383.38;;;20.03;46.59
76434;BME280;65265;53.200;6.080;2023-04-21T12:54:40;101370.19;;;20.76;41.82
76434;BME280;65265;53.200;6.080;2023-04-21T12:59:33;101376.84;;;20.41;41.72
76434;BME280;65265;53.200;6.080;2023-04-21T13:04:26;101373.75;;;19.95;43.37
76434;BME280;65265;53.200;6.080;2023-04-21T13:09:18;101361.13;;;19.49;44.67
76434;BME280;65265;53.200;6.080;2023-04-21T13:14:09;101358.84;;;19.74;44.13
76434;BME280;65265;53.200;6.080;2023-04-21T13:19:01;101354.69;;;19.90;42.87
76434;BME280;65265;53.200;6.080;2023-04-21T13:23:54;101342.63;;;19.98;41.88
76434;BME280;65265;53.200;6.080;2023-04-21T13:28:46;101337.38;;;19.93;43.46
76434;BME280;65265;53.200;6.080;2023-04-21T13:33:38;101332.97;;;19.83;41.22
76434;BME280;65265;53.200;6.080;2023-04-21T13:38:30;101314.81;;;19.83;42.63
76434;BME280;65265;53.200;6.080;2023-04-21T13:43:23;101312.84;;;20.55;42.57
76434;BME280;65265;53.200;6.080;2023-04-21T13:48:14;101298.34;;;20.87;42.64
76434;BME280;65265;53.200;6.080;2023-04-21T13:53:06;101293.81;;;20.64;42.56
76434;BME280;65265;53.200;6.080;2023-04-21T13:57:57;101290.00;;;20.15;40.94
76434;BME280;65265;53.200;6.080;2023-04-21T14:02:50;101285.50;;;19.96;41.18
76434;BME280;65265;53.200;6.080;2023-04-21T14:07:42;101282.88;;;19.92;41.59
76434;BME280;65265;53.200;6.080;2023-04-21T14:12:33;101273.28;;;19.86;39.83
76434;BME280;65265;53.200;6.080;2023-04-21T14:17:25;101256.38;;;20.30;38.81
76434;BME280;65265;53.200;6.080;2023-04-21T14:22:18;101252.13;;;20.44;39.58
76434;BME280;65265;53.200;6.080;2023-04-21T14:27:09;101246.97;;;20.46;40.83
76434;BME280;65265;53.200;6.080;2023-04-21T14:32:01;101239.94;;;20.37;39.78
76434;BME280;65265;53.200;6.080;2023-04-21T14:36:52;101233.81;;;20.22;39.20
76434;BME280;65265;53.200;6.080;2023-04-21T14:41:45;101225.72;;;19.90;41.03
76434;BME280;65265;53.200;6.080;2023-04-21T14:46:37;101222.84;;;19.57;42.40
76434;BME280;65265;53.200;6.080;2023-04-21T14:51:29;101221.16;;;19.61;40.08
76434;BME280;65265;53.200;6.080;2023-04-21T14:56:21;101206.38;;;19.52;40.49
76434;BME280;65265;53.200;6.080;2023-04-21T15:01:13;101189.81;;;19.40;39.51
76434;BME280;65265;53.200;6.080;2023-04-21T15:06:05;101188.94;;;19.38;40.29
76434;BME280;65265;53.200;6.080;2023-04-21T15:10:57;101182.81;;;19.32;40.80
76434;BME280;65265;53.200;6.080;2023-04-21T15:15:49;101170.69;;;19.31;41.10
76434;BME280;65265;53.200;6.080;2023-04-21T15:20:42;101157.63;;;19.22;41.83
76434;BME280;65265;53.200;6.080;2023-04-21T15:25:34;101154.91;;;19.11;41.66
76434;BME280;65265;53.200;6.080;2023-04-21T15:30:26;101152.16;;;18.98;42.20
76434;BME280;65265;53.200;6.080;2023-04-21T15:35:17;101137.44;;;18.92;42.22
76434;BME280;65265;53.200;6.080;2023-04-21T15:40:11;101139.22;;;18.99;41.72
76434;BME280;65265;53.200;6.080;2023-04-21T15:45:03;101127.00;;;18.88;41.21
76434;BME280;65265;53.200;6.080;2023-04-21T15:49:54;101117.41;;;18.79;41.42
76434;BME280;65265;53.200;6.080;2023-04-21T15:54:46;101113.13;;;18.81;42.17
76434;BME280;65265;53.200;6.080;2023-04-21T15:59:39;101110.34;;;18.68;42.20
76434;BME280;65265;53.200;6.080;2023-04-21T16:04:30;101097.34;;;18.63;42.31
76434;BME280;65265;53.200;6.080;2023-04-21T16:09:22;101094.41;;;18.35;44.57
76434;BME280;65265;53.200;6.080;2023-04-21T16:14:13;101090.97;;;18.36;45.61
76434;BME280;65265;53.200;6.080;2023-04-21T16:19:07;101080.69;;;18.39;45.50
76434;BME280;65265;53.200;6.080;2023-04-21T16:23:58;101064.44;;;18.52;44.16
76434;BME280;65265;53.200;6.080;2023-04-21T16:28:50;101057.47;;;18.49;43.31
76434;BME280;65265;53.200;6.080;2023-04-21T16:33:43;101061.09;;;18.63;43.76
76434;BME280;65265;53.200;6.080;2023-04-21T16:38:36;101040.19;;;18.45;43.83
76434;BME280;65265;53.200;6.080;2023-04-21T16:43:27;101039.44;;;18.60;44.33
76434;BME280;65265;53.200;6.080;2023-04-21T16:48:19;101037.78;;;18.62;43.79
76434;BME280;65265;53.200;6.080;2023-04-21T16:53:10;101022.09;;;18.51;44.16
76434;BME280;65265;53.200;6.080;2023-04-21T16:58:03;101022.28;;;18.69;44.29
76434;BME280;65265;53.200;6.080;2023-04-21T17:02:54;101023.09;;;18.65;44.62
76434;BME280;65265;53.200;6.080;2023-04-21T17:07:46;101026.31;;;18.43;44.01
76434;BME280;65265;53.200;6.080;2023-04-21T17:12:37;101016.75;;;18.38;43.84
76434;BME280;65265;53.200;6.080;2023-04-21T17:17:37;101023.34;;;18.12;44.75
76434;BME280;65265;53.200;6.080;2023-04-21T17:22:30;101031.78;;;17.96;44.58
76434;BME280;65265;53.200;6.080;2023-04-21T17:27:21;101026.34;;;17.78;45.53
76434;BME280;65265;53.200;6.080;2023-04-21T17:32:13;101023.63;;;17.67;45.85
76434;BME280;65265;53.200;6.080;2023-04-21T17:37:06;101029.66;;;17.68;45.61
76434;BME280;65265;53.200;6.080;2023-04-21T17:41:57;101021.81;;;17.63;45.42
76434;BME280;65265;53.200;6.080;2023-04-21T17:46:48;101018.28;;;17.57;44.34
76434;BME280;65265;53.200;6.080;2023-04-21T17:51:41;101028.56;;;17.51;45.69
76434;BME280;65265;53.200;6.080;2023-04-21T17:56:34;101041.53;;;17.54;43.02
76434;BME280;65265;53.200;6.080;2023-04-21T18:01:26;101064.09;;;17.65;43.56
76434;BME280;65265;53.200;6.080;2023-04-21T18:06:17;101076.16;;;17.13;58.14
76434;BME280;65265;53.200;6.080;2023-04-21T18:11:09;101079.06;;;16.39;63.07
76434;BME280;65265;53.200;6.080;2023-04-21T18:16:03;101045.19;;;15.84;66.39
76434;BME280;65265;53.200;6.080;2023-04-21T18:20:54;101050.63;;;15.59;67.64
76434;BME280;65265;53.200;6.080;2023-04-21T18:25:46;101051.13;;;15.43;69.12
76434;BME280;65265;53.200;6.080;2023-04-21T18:30:37;101042.16;;;15.29;69.67
76434;BME280;65265;53.200;6.080;2023-04-21T18:35:30;101046.81;;;15.10;70.80
76434;BME280;65265;53.200;6.080;2023-04-21T18:40:23;101032.53;;;14.88;72.24
76434;BME280;65265;53.200;6.080;2023-04-21T18:45:14;101037.31;;;14.73;73.42
76434;BME280;65265;53.200;6.080;2023-04-21T18:50:07;101036.16;;;14.62;74.66
76434;BME280;65265;53.200;6.080;2023-04-21T18:55:00;101044.53;;;14.55;74.30
76434;BME280;65265;53.200;6.080;2023-04-21T18:59:52;101043.56;;;14.50;75.22
76434;BME280;65265;53.200;6.080;2023-04-21T19:04:43;101048.50;;;14.44;75.15
76434;BME280;65265;53.200;6.080;2023-04-21T19:09:35;101049.28;;;14.42;74.89
76434;BME280;65265;53.200;6.080;2023-04-21T19:14:28;101047.44;;;14.37;75.33
76434;BME280;65265;53.200;6.080;2023-04-21T19:19:19;101040.34;;;14.28;76.43
76434;BME280;65265;53.200;6.080;2023-04-21T19:24:11;101042.63;;;14.18;77.28
76434;BME280;65265;53.200;6.080;2023-04-21T19:29:03;101035.38;;;14.06;77.43
76434;BME280;65265;53.200;6.080;2023-04-21T19:33:59;101034.34;;;14.00;77.86
76434;BME280;65265;53.200;6.080;2023-04-21T19:38:50;101036.72;;;13.94;77.96
76434;BME280;65265;53.200;6.080;2023-04-21T19:43:42;101029.66;;;13.87;78.92
76434;BME280;65265;53.200;6.080;2023-04-21T19:48:33;101025.22;;;13.81;78.48
76434;BME280;65265;53.200;6.080;2023-04-21T19:53:27;101017.28;;;13.74;79.49
76434;BME280;65265;53.200;6.080;2023-04-21T19:58:19;101026.50;;;13.67;79.54
76434;BME280;65265;53.200;6.080;2023-04-21T20:03:11;101011.66;;;13.59;79.09
76434;BME280;65265;53.200;6.080;2023-04-21T20:08:02;101021.00;;;13.55;80.10
76434;BME280;65265;53.200;6.080;2023-04-21T20:12:55;101030.88;;;13.43;79.89
76434;BME280;65265;53.200;6.080;2023-04-21T20:17:47;101065.53;;;13.28;81.28
76434;BME280;65265;53.200;6.080;2023-04-21T20:22:38;101116.75;;;13.25;82.35
76434;BME280;65265;53.200;6.080;2023-04-21T20:27:30;101155.19;;;13.22;82.22
76434;BME280;65265;53.200;6.080;2023-04-21T20:32:22;101157.50;;;13.14;82.70
76434;BME280;65265;53.200;6.080;2023-04-21T20:37:14;101168.69;;;13.16;83.62
76434;BME280;65265;53.200;6.080;2023-04-21T20:42:06;101144.00;;;13.20;82.20
76434;BME280;65265;53.200;6.080;2023-04-21T20:46:59;101131.81;;;13.14;81.49
76434;BME280;65265;53.200;6.080;2023-04-21T20:51:56;101107.88;;;12.92;81.65
76434;BME280;65265;53.200;6.080;2023-04-21T20:56:47;101094.84;;;12.86;81.64
76434;BME280;65265;53.200;6.080;2023-04-21T21:01:39;101090.22;;;12.76;84.12
76434;BME280;65265;53.200;6.080;2023-04-21T21:06:31;101039.50;;;12.69;85.07
76434;BME280;65265;53.200;6.080;2023-04-21T21:11:24;101034.72;;;12.54;85.96
76434;BME280;65265;53.200;6.080;2023-04-21T21:16:16;101040.06;;;12.37;89.18
76434;BME280;65265;53.200;6.080;2023-04-21T21:21:07;100985.09;;;12.29;89.93
76434;BME280;65265;53.200;6.080;2023-04-21T21:25:59;100985.25;;;12.10;92.59
76434;BME280;65265;53.200;6.080;2023-04-21T21:30:52;100977.69;;;11.90;92.50
76434;BME280;65265;53.200;6.080;2023-04-21T21:35:43;100976.03;;;11.92;92.90
76434;BME280;65265;53.200;6.080;2023-04-21T21:40:35;100983.75;;;11.93;93.54
76434;BME280;65265;53.200;6.080;2023-04-21T21:45:26;101002.66;;;11.95;95.01
76434;BME280;65265;53.200;6.080;2023-04-21T21:50:19;101039.13;;;11.88;95.14
76434;BME280;65265;53.200;6.080;2023-04-21T21:55:11;101051.28;;;11.93;91.00
76434;BME280;65265;53.200;6.080;2023-04-21T22:00:03;101046.00;;;11.89;90.10
76434;BME280;65265;53.200;6.080;2023-04-21T22:04:56;101026.72;;;11.77;94.66
76434;BME280;65265;53.200;6.080;2023-04-21T22:09:49;101011.88;;;11.68;94.99
76434;BME280;65265;53.200;6.080;2023-04-21T22:14:41;101020.28;;;11.64;94.49
76434;BME280;65265;53.200;6.080;2023-04-21T22:19:32;101010.59;;;11.57;94.24
76434;BME280;65265;53.200;6.080;2023-04-21T22:24:24;101007.78;;;11.51;93.68
76434;BME280;65265;53.200;6.080;2023-04-21T22:29:17;101013.53;;;11.46;93.89
76434;BME280;65265;53.200;6.080;2023-04-21T22:34:09;101008.47;;;11.47;93.67
76434;BME280;65265;53.200;6.080;2023-04-21T22:39:04;100997.41;;;11.48;95.64
76434;BME280;65265;53.200;6.080;2023-04-21T22:43:56;100975.69;;;11.39;96.93
76434;BME280;65265;53.200;6.080;2023-04-21T22:48:48;100986.69;;;11.36;98.50
76434;BME280;65265;53.200;6.080;2023-04-21T22:53:43;100985.38;;;11.46;97.37
76434;BME280;65265;53.200;6.080;2023-04-21T22:58:34;100978.19;;;11.37;98.79
76434;BME280;65265;53.200;6.080;2023-04-21T23:03:26;100998.66;;;11.37;98.58
76434;BME280;65265;53.200;6.080;2023-04-21T23:08:19;101018.94;;;11.31;99.76
76434;BME280;65265;53.200;6.080;2023-04-21T23:13:11;101043.66;;;11.31;100.00
76434;BME280;65265;53.200;6.080;2023-04-21T23:18:02;101032.38;;;11.26;99.24
76434;BME280;65265;53.200;6.080;2023-04-21T23:22:54;101052.25;;;11.33;99.04
76434;BME280;65265;53.200;6.080;2023-04-21T23:27:47;101094.41;;;11.41;98.59
76434;BME280;65265;53.200;6.080;2023-04-21T23:32:38;101076.19;;;11.33;98.93
76434;BME280;65265;53.200;6.080;2023-04-21T23:37:30;101071.88;;;11.32;97.09
76434;BME280;65265;53.200;6.080;2023-04-21T23:42:21;101059.41;;;11.19;97.79
76434;BME280;65265;53.200;6.080;2023-04-21T23:47:15;101042.03;;;11.12;98.22
76434;BME280;65265;53.200;6.080;2023-04-21T23:52:06;101019.44;;;11.02;98.66
76434;BME280;65265;53.200;6.080;2023-04-21T23:56:58;101003.06;;;10.97;97.99
